Time;durP1;ratioP1;P1;durP2;ratioP2;P2;SDS_P1;SDS_P2;PMS_P1;PMS_P2;Temp;Humidity;BMP_temperature;BMP_pressure;BME280_temperature;BME280_humidity;BME280_pressure;Samples;Min_cycle;Max_cycle;Signal;HPM_P1;HPM_P2
2022/05/18 00:01:15;;;;;;;16.52;12.43;;;;;;;;;;5006701;28;20203;-70
2022/05/18 00:03:42;;;;;;;16.02;13.05;;;;;;;;;;5013015;28;20708;-70
2022/05/18 00:06:08;;;;;;;15.85;14.18;;;;;;;;;;5012071;28;20180;-70
2022/05/18 00:08:36;;;;;;;15.07;13.48;;;;;;;;;;5009780;28;20175;-70
2022/05/18 00:11:03;;;;;;;19.65;14.80;;;;;;;;;;5005929;28;20226;-72
2022/05/18 00:13:28;;;;;;;17.20;15.10;;;;;;;;;;5011746;28;20183;-72
2022/05/18 00:15:53;;;;;;;19.48;15.13;;;;;;;;;;5012056;28;20182;-72
2022/05/18 00:18:18;;;;;;;19.42;14.45;;;;;;;;;;5005562;28;20627;-72
2022/05/18 00:20:44;;;;;;;15.65;13.93;;;;;;;;;;5013931;28;20190;-71
2022/05/18 00:23:09;;;;;;;18.55;15.45;;;;;;;;;;5010390;28;20483;-72
2022/05/18 00:25:36;;;;;;;21.60;16.15;;;;;;;;;;5009411;28;20187;-70
2022/05/18 00:28:01;;;;;;;19.88;15.98;;;;;;;;;;5007514;28;20209;-71
2022/05/18 00:30:27;;;;;;;23.38;18.15;;;;;;;;;;5012132;28;20692;-72
2022/05/18 00:32:53;;;;;;;19.13;16.58;;;;;;;;;;5009896;28;20167;-72
2022/05/18 00:35:18;;;;;;;20.40;17.25;;;;;;;;;;5019877;28;20178;-71
2022/05/18 00:37:43;;;;;;;20.70;15.65;;;;;;;;;;5013691;28;20186;-71
2022/05/18 00:40:10;;;;;;;20.85;17.83;;;;;;;;;;5012902;28;20182;-72
2022/05/18 00:42:35;;;;;;;18.02;16.08;;;;;;;;;;5016977;28;20187;-71
2022/05/18 00:45:00;;;;;;;19.98;16.70;;;;;;;;;;5016546;28;20182;-70
2022/05/18 00:47:25;;;;;;;24.35;17.13;;;;;;;;;;5015009;28;20178;-72
2022/05/18 00:49:53;;;;;;;18.02;15.70;;;;;;;;;;5010288;28;20191;-70
2022/05/18 00:52:20;;;;;;;24.45;17.23;;;;;;;;;;5011461;28;20708;-71
2022/05/18 00:54:47;;;;;;;18.52;16.35;;;;;;;;;;5014620;28;20494;-70
2022/05/18 00:57:17;;;;;;;21.50;18.08;;;;;;;;;;5013255;28;20187;-71
2022/05/18 00:59:44;;;;;;;24.40;19.55;;;;;;;;;;5014480;28;20240;-70
2022/05/18 01:02:10;;;;;;;23.77;19.40;;;;;;;;;;5015417;28;20570;-71
2022/05/18 01:04:35;;;;;;;24.08;19.48;;;;;;;;;;5016062;28;20186;-71
2022/05/18 01:07:03;;;;;;;22.25;17.85;;;;;;;;;;5011172;28;20178;-70
2022/05/18 01:09:31;;;;;;;23.63;20.67;;;;;;;;;;5014845;28;20563;-71
2022/05/18 01:11:56;;;;;;;23.23;20.77;;;;;;;;;;5011699;28;20195;-71
2022/05/18 01:14:30;;;;;;;25.83;21.95;;;;;;;;;;5018362;28;20539;-71
2022/05/18 01:16:55;;;;;;;23.75;21.27;;;;;;;;;;5007027;28;20245;-72
2022/05/18 01:19:30;;;;;;;25.40;20.13;;;;;;;;;;5019015;28;20218;-70
2022/05/18 01:22:03;;;;;;;29.38;25.38;;;;;;;;;;5009520;28;20198;-70
2022/05/18 01:24:33;;;;;;;32.78;25.40;;;;;;;;;;5016899;28;20667;-72
2022/05/18 01:27:00;;;;;;;36.47;27.05;;;;;;;;;;5013818;28;20187;-70
2022/05/18 01:29:26;;;;;;;38.03;29.50;;;;;;;;;;5017442;28;20170;-72
2022/05/18 01:31:55;;;;;;;36.60;30.70;;;;;;;;;;5010684;28;20318;-72
2022/05/18 01:34:23;;;;;;;39.35;32.17;;;;;;;;;;5015599;28;20186;-72
2022/05/18 01:36:48;;;;;;;35.60;29.45;;;;;;;;;;5010219;28;20262;-71
2022/05/18 01:39:34;;;;;;;29.80;26.08;;;;;;;;;;5009743;28;20267;-70
2022/05/18 01:42:03;;;;;;;33.85;26.50;;;;;;;;;;5012498;28;20218;-71
2022/05/18 01:44:28;;;;;;;27.65;24.52;;;;;;;;;;5018306;28;20179;-71
2022/05/18 01:46:53;;;;;;;30.45;25.73;;;;;;;;;;5013006;28;20534;-71
2022/05/18 01:49:19;;;;;;;29.40;24.77;;;;;;;;;;5012340;28;20195;-71
2022/05/18 01:51:47;;;;;;;40.13;28.38;;;;;;;;;;5012748;28;20239;-71
2022/05/18 01:54:13;;;;;;;31.08;26.30;;;;;;;;;;5016223;28;20185;-71
2022/05/18 01:56:38;;;;;;;32.03;28.60;;;;;;;;;;5013839;28;20174;-71
2022/05/18 01:59:03;;;;;;;34.70;26.95;;;;;;;;;;5013187;28;20553;-71
2022/05/18 02:01:29;;;;;;;34.50;28.50;;;;;;;;;;5013861;28;20210;-70
2022/05/18 02:03:54;;;;;;;39.47;29.83;;;;;;;;;;5010968;28;20187;-72
2022/05/18 02:06:19;;;;;;;31.40;27.92;;;;;;;;;;5030226;28;20213;-70
2022/05/18 02:08:45;;;;;;;32.47;26.85;;;;;;;;;;5013846;28;20515;-72
2022/05/18 02:11:11;;;;;;;35.63;27.52;;;;;;;;;;5011369;28;20207;-71
2022/05/18 02:13:36;;;;;;;36.85;30.77;;;;;;;;;;5018394;28;20670;-72
2022/05/18 02:16:02;;;;;;;35.72;29.80;;;;;;;;;;5011990;28;20191;-71
2022/05/18 02:18:27;;;;;;;39.38;29.60;;;;;;;;;;5011349;28;20186;-70
2022/05/18 02:20:52;;;;;;;34.07;28.83;;;;;;;;;;5013008;28;20211;-71
2022/05/18 02:23:17;;;;;;;35.50;30.35;;;;;;;;;;5012219;28;20425;-71
2022/05/18 02:25:42;;;;;;;34.57;29.00;;;;;;;;;;5015791;28;20627;-71
2022/05/18 02:28:08;;;;;;;42.00;30.70;;;;;;;;;;5015021;28;20427;-71
2022/05/18 02:30:33;;;;;;;38.72;31.98;;;;;;;;;;5012340;28;20211;-71
2022/05/18 02:32:58;;;;;;;37.10;31.27;;;;;;;;;;5022830;28;20576;-71
2022/05/18 02:35:23;;;;;;;31.85;28.45;;;;;;;;;;5014904;28;20175;-72
2022/05/18 02:37:48;;;;;;;38.58;30.60;;;;;;;;;;5011507;28;20625;-70
2022/05/18 02:40:14;;;;;;;42.97;32.92;;;;;;;;;;5012313;28;20242;-72
2022/05/18 02:42:39;;;;;;;39.63;32.90;;;;;;;;;;5013657;28;20187;-72
2022/05/18 02:45:05;;;;;;;34.65;30.52;;;;;;;;;;5016049;28;20225;-71
2022/05/18 02:47:30;;;;;;;36.78;29.58;;;;;;;;;;5012144;28;20189;-71
2022/05/18 02:49:56;;;;;;;38.15;32.53;;;;;;;;;;5018292;28;20214;-72
2022/05/18 02:52:21;;;;;;;40.25;31.77;;;;;;;;;;5003872;28;20210;-71
2022/05/18 02:57:31;;;;;;;41.33;32.08;;;;;;;;;;5008450;28;20189;-70
2022/05/18 02:59:56;;;;;;;37.30;31.17;;;;;;;;;;5005390;28;20254;-73
2022/05/18 03:02:21;;;;;;;40.15;32.35;;;;;;;;;;5011277;28;20218;-71
2022/05/18 03:04:47;;;;;;;42.25;32.40;;;;;;;;;;5015129;28;20273;-71
2022/05/18 03:07:12;;;;;;;35.78;31.70;;;;;;;;;;5019244;28;20231;-71
2022/05/18 03:09:37;;;;;;;37.45;28.85;;;;;;;;;;5011854;28;20653;-71
2022/05/18 03:12:04;;;;;;;39.67;29.75;;;;;;;;;;5011529;28;20206;-72
2022/05/18 03:14:29;;;;;;;40.58;29.40;;;;;;;;;;5013084;28;20597;-71
2022/05/18 03:16:54;;;;;;;33.13;27.70;;;;;;;;;;5010130;28;20259;-72
2022/05/18 03:19:19;;;;;;;29.70;26.38;;;;;;;;;;5017260;28;20309;-72
2022/05/18 03:24:28;;;;;;;31.38;26.10;;;;;;;;;;5014011;28;20194;-73
2022/05/18 03:26:54;;;;;;;34.17;28.25;;;;;;;;;;5011714;28;20175;-71
2022/05/18 03:29:19;;;;;;;31.90;28.25;;;;;;;;;;5012899;28;20179;-71
2022/05/18 03:31:46;;;;;;;34.38;26.98;;;;;;;;;;5011279;28;20751;-71
2022/05/18 03:34:11;;;;;;;31.40;25.73;;;;;;;;;;5010076;28;20167;-71
2022/05/18 03:36:37;;;;;;;31.98;26.20;;;;;;;;;;5010598;28;20230;-72
2022/05/18 03:39:02;;;;;;;31.83;26.48;;;;;;;;;;5008430;28;20178;-72
2022/05/18 03:41:27;;;;;;;30.60;24.98;;;;;;;;;;5016803;28;20198;-71
2022/05/18 03:43:53;;;;;;;29.60;25.70;;;;;;;;;;5012577;28;20187;-71
2022/05/18 03:46:18;;;;;;;24.58;21.98;;;;;;;;;;5012621;28;20193;-71
2022/05/18 03:48:44;;;;;;;27.33;24.25;;;;;;;;;;5010028;28;20191;-71
2022/05/18 03:51:11;;;;;;;29.40;25.65;;;;;;;;;;5015225;28;20698;-71
2022/05/18 03:53:36;;;;;;;26.60;23.75;;;;;;;;;;5009853;28;20290;-71
2022/05/18 03:56:02;;;;;;;31.13;25.27;;;;;;;;;;5019329;28;20649;-71
2022/05/18 03:58:27;;;;;;;32.67;27.48;;;;;;;;;;5023308;28;20205;-71
2022/05/18 04:00:53;;;;;;;33.47;27.77;;;;;;;;;;5011571;28;20195;-71
2022/05/18 04:03:19;;;;;;;33.17;26.63;;;;;;;;;;5011170;28;20217;-72
2022/05/18 04:05:47;;;;;;;32.63;27.63;;;;;;;;;;5009142;28;20590;-72
2022/05/18 04:08:12;;;;;;;34.30;28.00;;;;;;;;;;5024209;28;20214;-71
2022/05/18 04:10:41;;;;;;;33.63;28.50;;;;;;;;;;5011974;28;20234;-71
2022/05/18 04:13:07;;;;;;;33.20;28.83;;;;;;;;;;5017240;28;20187;-71
2022/05/18 04:15:33;;;;;;;35.25;27.88;;;;;;;;;;5012790;28;20190;-71
2022/05/18 04:18:01;;;;;;;32.38;27.23;;;;;;;;;;5012571;28;20242;-71
2022/05/18 04:20:26;;;;;;;34.88;27.00;;;;;;;;;;5010744;28;20605;-71
2022/05/18 04:22:52;;;;;;;32.80;26.65;;;;;;;;;;5009195;28;20191;-72
2022/05/18 04:25:21;;;;;;;31.27;27.65;;;;;;;;;;5015210;28;20190;-71
2022/05/18 04:27:49;;;;;;;31.00;26.38;;;;;;;;;;5009538;28;20661;-72
2022/05/18 04:30:15;;;;;;;30.70;27.55;;;;;;;;;;5012549;28;20699;-70
2022/05/18 04:32:41;;;;;;;31.80;28.40;;;;;;;;;;5009591;28;20667;-72
2022/05/18 04:35:08;;;;;;;34.17;29.75;;;;;;;;;;5012569;28;20179;-73
2022/05/18 04:37:33;;;;;;;35.63;30.45;;;;;;;;;;5012605;28;20179;-70
2022/05/18 04:39:58;;;;;;;42.33;31.03;;;;;;;;;;5008106;28;20454;-70
2022/05/18 04:42:23;;;;;;;32.53;28.23;;;;;;;;;;5009747;28;20459;-70
2022/05/18 04:44:50;;;;;;;34.55;29.80;;;;;;;;;;5011377;28;20179;-70
2022/05/18 04:47:15;;;;;;;32.35;29.00;;;;;;;;;;5012185;28;20183;-70
2022/05/18 04:49:41;;;;;;;37.28;29.33;;;;;;;;;;5008061;28;20179;-71
2022/05/18 04:52:07;;;;;;;30.77;26.52;;;;;;;;;;5008062;28;20625;-71
2022/05/18 04:54:34;;;;;;;28.98;25.83;;;;;;;;;;4994043;28;20204;-70
2022/05/18 04:57:00;;;;;;;28.05;25.05;;;;;;;;;;5012529;28;20175;-71
2022/05/18 04:59:25;;;;;;;27.52;24.63;;;;;;;;;;5019943;28;20233;-71
2022/05/18 05:01:50;;;;;;;25.88;23.10;;;;;;;;;;5004909;28;20191;-71
2022/05/18 05:04:15;;;;;;;25.13;22.40;;;;;;;;;;5004212;28;20207;-71
2022/05/18 05:06:40;;;;;;;24.00;21.73;;;;;;;;;;5010430;28;20498;-71
2022/05/18 05:09:06;;;;;;;25.20;22.47;;;;;;;;;;5015428;28;20431;-71
2022/05/18 05:11:31;;;;;;;27.02;23.08;;;;;;;;;;5010309;28;20468;-70
2022/05/18 05:13:57;;;;;;;23.73;21.33;;;;;;;;;;5014130;28;20190;-71
2022/05/18 05:16:22;;;;;;;25.73;21.60;;;;;;;;;;5013665;28;20182;-71
2022/05/18 05:18:47;;;;;;;22.60;20.35;;;;;;;;;;5008191;28;20943;-71
2022/05/18 05:21:12;;;;;;;30.55;22.75;;;;;;;;;;5013829;28;20709;-70
2022/05/18 05:23:38;;;;;;;24.45;21.92;;;;;;;;;;5013046;28;20775;-71
2022/05/18 05:26:03;;;;;;;27.13;22.37;;;;;;;;;;5024513;28;20259;-71
2022/05/18 05:28:29;;;;;;;24.00;21.42;;;;;;;;;;5016699;28;20432;-71
2022/05/18 05:30:54;;;;;;;24.27;21.77;;;;;;;;;;5023194;28;20218;-71
2022/05/18 05:33:19;;;;;;;24.65;22.02;;;;;;;;;;5017706;28;20189;-70
2022/05/18 05:35:44;;;;;;;25.67;22.83;;;;;;;;;;5014266;28;20178;-71
2022/05/18 05:38:11;;;;;;;26.87;23.00;;;;;;;;;;5025943;28;20299;-71
2022/05/18 05:40:36;;;;;;;26.85;23.48;;;;;;;;;;5012204;28;20535;-70
2022/05/18 05:43:09;;;;;;;23.05;20.15;;;;;;;;;;5014105;28;20516;-70
2022/05/18 05:45:34;;;;;;;29.98;25.83;;;;;;;;;;5010666;28;20182;-69
2022/05/18 05:47:59;;;;;;;27.30;22.73;;;;;;;;;;5015843;28;20198;-71
2022/05/18 05:50:25;;;;;;;30.17;23.70;;;;;;;;;;5007940;28;20213;-70
2022/05/18 05:52:51;;;;;;;27.33;22.52;;;;;;;;;;5003708;28;20225;-72
2022/05/18 05:55:16;;;;;;;24.15;21.65;;;;;;;;;;5012918;28;20252;-71
2022/05/18 05:57:41;;;;;;;29.10;23.02;;;;;;;;;;5017294;28;20762;-70
2022/05/18 06:00:07;;;;;;;24.60;21.37;;;;;;;;;;5013188;28;20211;-71
2022/05/18 06:02:33;;;;;;;26.35;23.48;;;;;;;;;;5014149;28;20571;-71
2022/05/18 06:04:58;;;;;;;24.65;21.75;;;;;;;;;;5014944;28;20699;-71
2022/05/18 06:07:23;;;;;;;25.90;21.83;;;;;;;;;;5016758;28;20201;-71
2022/05/18 06:09:48;;;;;;;25.05;21.33;;;;;;;;;;5014008;28;20624;-72
2022/05/18 06:12:14;;;;;;;23.97;20.60;;;;;;;;;;5016610;28;20205;-71
2022/05/18 06:14:42;;;;;;;27.65;19.52;;;;;;;;;;5015352;28;20469;-71
2022/05/18 06:17:07;;;;;;;28.55;22.70;;;;;;;;;;5014837;28;20179;-71
2022/05/18 06:19:33;;;;;;;23.40;21.10;;;;;;;;;;5004308;28;20171;-71
2022/05/18 06:21:59;;;;;;;24.25;20.40;;;;;;;;;;5010232;28;20428;-70
2022/05/18 06:24:24;;;;;;;23.37;19.30;;;;;;;;;;5015145;28;20663;-70
2022/05/18 06:26:49;;;;;;;23.57;20.13;;;;;;;;;;5013097;28;20435;-70
2022/05/18 06:29:14;;;;;;;22.77;19.40;;;;;;;;;;5015623;28;20950;-70
2022/05/18 06:31:39;;;;;;;23.70;19.40;;;;;;;;;;5016335;28;20467;-71
2022/05/18 06:34:04;;;;;;;20.80;18.63;;;;;;;;;;5012408;28;20183;-69
2022/05/18 06:36:30;;;;;;;22.40;18.00;;;;;;;;;;5005994;28;20431;-70
2022/05/18 06:38:55;;;;;;;21.02;17.33;;;;;;;;;;5012367;28;20174;-70
2022/05/18 06:41:23;;;;;;;20.40;18.13;;;;;;;;;;5007470;28;20198;-70
2022/05/18 06:43:49;;;;;;;21.02;17.95;;;;;;;;;;5016230;28;20201;-70
2022/05/18 06:46:14;;;;;;;20.05;17.23;;;;;;;;;;5015309;28;20651;-70
2022/05/18 06:48:42;;;;;;;17.75;15.93;;;;;;;;;;5006584;28;20194;-70
2022/05/18 06:51:08;;;;;;;16.92;15.13;;;;;;;;;;5008846;28;20206;-71
2022/05/18 06:53:33;;;;;;;16.85;14.25;;;;;;;;;;5018718;28;20651;-71
2022/05/18 06:55:58;;;;;;;15.98;12.35;;;;;;;;;;5015349;28;20649;-71
2022/05/18 06:58:23;;;;;;;12.93;11.43;;;;;;;;;;5011967;28;20261;-71
2022/05/18 07:00:48;;;;;;;15.37;11.03;;;;;;;;;;5014445;28;20467;-71
2022/05/18 07:03:14;;;;;;;13.83;10.63;;;;;;;;;;5016237;28;20801;-71
2022/05/18 07:05:39;;;;;;;10.60;8.98;;;;;;;;;;5014659;28;20440;-71
2022/05/18 07:08:05;;;;;;;16.27;10.55;;;;;;;;;;5012212;28;20254;-71
2022/05/18 07:10:30;;;;;;;12.00;10.48;;;;;;;;;;5014788;28;20293;-71
2022/05/18 07:12:56;;;;;;;10.75;9.63;;;;;;;;;;5011882;28;20274;-71
2022/05/18 07:15:21;;;;;;;12.65;9.80;;;;;;;;;;5021850;28;20182;-71
2022/05/18 07:17:46;;;;;;;12.82;10.32;;;;;;;;;;5015588;28;20245;-71
2022/05/18 07:20:12;;;;;;;13.35;10.68;;;;;;;;;;5022749;28;20244;-71
2022/05/18 07:22:37;;;;;;;13.98;10.80;;;;;;;;;;5012676;28;20175;-72
2022/05/18 07:25:03;;;;;;;14.50;10.90;;;;;;;;;;5018228;28;20680;-71
2022/05/18 07:27:29;;;;;;;12.80;10.45;;;;;;;;;;5012784;28;20435;-70
2022/05/18 07:29:54;;;;;;;14.30;10.18;;;;;;;;;;5015748;28;20203;-71
2022/05/18 07:32:19;;;;;;;16.60;10.73;;;;;;;;;;5012398;28;20202;-71
2022/05/18 07:34:44;;;;;;;13.23;9.60;;;;;;;;;;5015909;28;20462;-72
2022/05/18 07:37:10;;;;;;;13.23;8.30;;;;;;;;;;5029656;28;20424;-71
2022/05/18 07:39:36;;;;;;;11.73;9.05;;;;;;;;;;5017239;28;20168;-71
2022/05/18 07:42:01;;;;;;;12.32;9.45;;;;;;;;;;5011870;28;20234;-71
2022/05/18 07:44:27;;;;;;;10.95;8.27;;;;;;;;;;5015243;28;20277;-71
2022/05/18 07:46:52;;;;;;;11.73;8.52;;;;;;;;;;5008617;28;20229;-71
2022/05/18 07:49:17;;;;;;;8.88;7.80;;;;;;;;;;5007533;28;20668;-71
2022/05/18 07:51:45;;;;;;;9.63;7.22;;;;;;;;;;5009417;28;20743;-71
2022/05/18 07:54:11;;;;;;;9.90;7.32;;;;;;;;;;5012643;28;20257;-72
2022/05/18 07:56:37;;;;;;;10.63;7.15;;;;;;;;;;5008883;28;20174;-71
2022/05/18 07:59:06;;;;;;;10.35;8.05;;;;;;;;;;5011286;28;20657;-71
2022/05/18 08:01:32;;;;;;;8.82;7.82;;;;;;;;;;5011256;28;20206;-70
2022/05/18 08:03:57;;;;;;;9.15;6.88;;;;;;;;;;5005253;28;20712;-70
2022/05/18 08:06:22;;;;;;;9.93;7.93;;;;;;;;;;5016177;28;20197;-71
2022/05/18 08:08:47;;;;;;;11.25;8.38;;;;;;;;;;5012181;28;20413;-70
2022/05/18 08:16:42;;;;;;;8.30;6.95;;;;;;;;;;5009763;28;20195;-71
2022/05/18 08:19:12;;;;;;;8.88;6.97;;;;;;;;;;5010515;28;20194;-70
2022/05/18 08:21:37;;;;;;;9.95;7.43;;;;;;;;;;5010677;28;20717;-72
2022/05/18 08:24:03;;;;;;;10.93;6.63;;;;;;;;;;5011961;28;20179;-70
2022/05/18 08:26:28;;;;;;;10.15;6.22;;;;;;;;;;5013584;28;20198;-70
2022/05/18 08:28:53;;;;;;;9.43;6.80;;;;;;;;;;5011073;28;20179;-71
2022/05/18 08:31:20;;;;;;;10.00;6.70;;;;;;;;;;5011938;28;20466;-72
2022/05/18 08:33:45;;;;;;;9.52;7.10;;;;;;;;;;5028669;28;20944;-71
2022/05/18 08:36:10;;;;;;;7.83;6.33;;;;;;;;;;5015026;28;20179;-71
2022/05/18 08:38:36;;;;;;;8.43;6.88;;;;;;;;;;5011576;28;20431;-72
2022/05/18 08:41:12;;;;;;;7.05;6.22;;;;;;;;;;5009230;28;20202;-71
2022/05/18 08:43:38;;;;;;;8.55;6.60;;;;;;;;;;5011983;28;20644;-70
2022/05/18 08:46:05;;;;;;;12.68;8.02;;;;;;;;;;5014912;28;20277;-70
2022/05/18 08:48:39;;;;;;;8.70;6.05;;;;;;;;;;5013992;28;20865;-71
2022/05/18 08:51:22;;;;;;;9.48;6.78;;;;;;;;;;5004924;28;20201;-71
2022/05/18 08:54:03;;;;;;;8.98;6.40;;;;;;;;;;5011769;28;20547;-71
2022/05/18 08:56:31;;;;;;;9.50;6.65;;;;;;;;;;5014350;28;20652;-71
2022/05/18 08:58:57;;;;;;;8.98;6.65;;;;;;;;;;5011637;28;20189;-70
2022/05/18 09:01:28;;;;;;;13.80;6.97;;;;;;;;;;5013331;28;20206;-71
2022/05/18 09:03:59;;;;;;;9.73;6.82;;;;;;;;;;5006497;28;20230;-71
2022/05/18 09:06:29;;;;;;;9.20;7.05;;;;;;;;;;5014550;28;20193;-71
2022/05/18 09:11:47;;;;;;;10.05;7.50;;;;;;;;;;5017094;28;20233;-71
2022/05/18 09:14:13;;;;;;;13.05;8.13;;;;;;;;;;5015254;28;20641;-70
2022/05/18 09:16:44;;;;;;;10.25;7.53;;;;;;;;;;5018966;28;20179;-71
2022/05/18 09:19:28;;;;;;;10.23;6.63;;;;;;;;;;5017983;28;20207;-72
2022/05/18 09:22:10;;;;;;;11.75;8.13;;;;;;;;;;5013387;28;20211;-71
2022/05/18 09:24:38;;;;;;;11.10;7.95;;;;;;;;;;5033447;28;20182;-71
2022/05/18 09:27:16;;;;;;;12.00;7.10;;;;;;;;;;5015764;28;20186;-72
2022/05/18 09:29:50;;;;;;;9.27;8.05;;;;;;;;;;5014579;28;20174;-70
2022/05/18 09:32:15;;;;;;;10.93;8.85;;;;;;;;;;5015103;28;20558;-71
2022/05/18 09:34:59;;;;;;;11.50;8.75;;;;;;;;;;5018375;28;20541;-71
2022/05/18 09:37:36;;;;;;;10.90;9.10;;;;;;;;;;5017683;28;20178;-71
2022/05/18 09:40:08;;;;;;;11.68;8.45;;;;;;;;;;5013436;28;20171;-71
2022/05/18 09:42:35;;;;;;;11.75;7.95;;;;;;;;;;5014174;28;20187;-71
2022/05/18 09:45:08;;;;;;;12.45;7.88;;;;;;;;;;5016635;28;20668;-71
2022/05/18 09:47:43;;;;;;;9.82;8.30;;;;;;;;;;5015690;28;20285;-71
2022/05/18 09:50:09;;;;;;;12.05;9.07;;;;;;;;;;5015134;28;20190;-70
2022/05/18 09:52:37;;;;;;;13.05;9.23;;;;;;;;;;5015968;28;20194;-71
2022/05/18 09:55:04;;;;;;;12.60;8.82;;;;;;;;;;5013286;28;20191;-71
2022/05/18 09:57:48;;;;;;;14.25;10.05;;;;;;;;;;5012894;28;20197;-71
2022/05/18 10:00:15;;;;;;;11.57;9.88;;;;;;;;;;5009055;28;20228;-71
2022/05/18 10:08:22;;;;;;;12.90;9.82;;;;;;;;;;5011864;28;20182;-71
2022/05/18 10:10:52;;;;;;;13.98;9.85;;;;;;;;;;5012541;28;20215;-71
2022/05/18 10:13:19;;;;;;;13.75;9.23;;;;;;;;;;5012994;28;20716;-70
2022/05/18 10:15:47;;;;;;;12.85;10.18;;;;;;;;;;5019870;28;20210;-71
2022/05/18 10:18:30;;;;;;;11.68;10.10;;;;;;;;;;5012285;28;20623;-71
2022/05/18 10:21:19;;;;;;;13.30;10.10;;;;;;;;;;5017510;28;20551;-71
2022/05/18 10:23:48;;;;;;;11.80;9.15;;;;;;;;;;5008967;28;20559;-70
2022/05/18 10:26:22;;;;;;;14.73;9.82;;;;;;;;;;5014113;28;20691;-70
2022/05/18 10:28:52;;;;;;;11.82;9.80;;;;;;;;;;5012413;28;20592;-71
2022/05/18 10:31:26;;;;;;;12.63;9.00;;;;;;;;;;5021211;28;20211;-71
2022/05/18 10:33:51;;;;;;;10.63;9.02;;;;;;;;;;5028241;28;20171;-71
2022/05/18 10:36:23;;;;;;;11.77;9.53;;;;;;;;;;5014850;28;20225;-71
2022/05/18 10:38:53;;;;;;;11.52;10.00;;;;;;;;;;5007134;28;20214;-71
2022/05/18 10:41:26;;;;;;;12.55;10.02;;;;;;;;;;5030267;28;20199;-71
2022/05/18 10:43:54;;;;;;;11.43;9.20;;;;;;;;;;5012346;28;20552;-71
2022/05/18 10:46:26;;;;;;;12.77;8.02;;;;;;;;;;5015451;28;20205;-72
2022/05/18 10:48:59;;;;;;;14.07;9.50;;;;;;;;;;5010456;28;20175;-70
2022/05/18 10:51:44;;;;;;;12.30;8.95;;;;;;;;;;5013235;28;20214;-70
2022/05/18 10:54:09;;;;;;;12.60;8.82;;;;;;;;;;5006555;28;20190;-70
2022/05/18 10:56:34;;;;;;;9.65;8.15;;;;;;;;;;5019147;28;20221;-70
2022/05/18 10:59:18;;;;;;;12.52;7.57;;;;;;;;;;5010123;28;20175;-70
2022/05/18 11:01:50;;;;;;;11.18;7.78;;;;;;;;;;5015506;28;20214;-70
2022/05/18 11:04:18;;;;;;;10.55;8.65;;;;;;;;;;5014603;28;20195;-70
2022/05/18 11:06:43;;;;;;;10.43;8.02;;;;;;;;;;5015341;28;20186;-70
2022/05/18 11:09:27;;;;;;;12.27;8.47;;;;;;;;;;5012091;28;20183;-71
2022/05/18 11:12:06;;;;;;;16.83;9.57;;;;;;;;;;5012754;28;20475;-71
2022/05/18 11:14:40;;;;;;;12.95;8.50;;;;;;;;;;5012263;28;20183;-70
2022/05/18 11:17:20;;;;;;;14.23;10.25;;;;;;;;;;5013338;28;20175;-71
2022/05/18 11:20:05;;;;;;;9.80;8.45;;;;;;;;;;5011744;28;20197;-71
2022/05/18 11:22:34;;;;;;;10.27;8.80;;;;;;;;;;5015059;28;20551;-71
2022/05/18 11:25:15;;;;;;;12.40;9.35;;;;;;;;;;5016719;28;20174;-71
2022/05/18 11:27:49;;;;;;;12.50;8.52;;;;;;;;;;5012572;28;20179;-71
2022/05/18 11:30:18;;;;;;;9.40;8.35;;;;;;;;;;5025724;28;20234;-72
2022/05/18 11:33:02;;;;;;;12.55;9.35;;;;;;;;;;5016343;28;20182;-72
2022/05/18 11:35:27;;;;;;;9.27;8.25;;;;;;;;;;5016374;28;20187;-72
2022/05/18 11:38:01;;;;;;;11.25;8.15;;;;;;;;;;5013468;28;20676;-70
2022/05/18 11:40:41;;;;;;;12.48;8.95;;;;;;;;;;5011579;28;20211;-71
2022/05/18 11:43:28;;;;;;;12.15;9.40;;;;;;;;;;5011441;28;20687;-72
2022/05/18 11:46:05;;;;;;;9.98;8.90;;;;;;;;;;5017444;28;20661;-71
2022/05/18 11:48:39;;;;;;;8.80;7.90;;;;;;;;;;5011005;28;20186;-71
2022/05/18 11:51:12;;;;;;;9.75;8.75;;;;;;;;;;5011644;28;20324;-71
2022/05/18 11:53:47;;;;;;;11.90;9.00;;;;;;;;;;5012062;28;20183;-70
2022/05/18 11:56:26;;;;;;;11.07;8.70;;;;;;;;;;5015248;28;20725;-70
2022/05/18 11:59:28;;;;;;;9.32;7.45;;;;;;;;;;5026485;28;20167;-71
2022/05/18 12:01:55;;;;;;;9.30;7.78;;;;;;;;;;5015808;28;20750;-70
2022/05/18 12:04:28;;;;;;;9.75;7.57;;;;;;;;;;5033717;28;20194;-71
2022/05/18 12:07:12;;;;;;;8.18;7.35;;;;;;;;;;5015183;28;20194;-71
2022/05/18 12:09:51;;;;;;;9.05;7.25;;;;;;;;;;5009756;28;20564;-72
2022/05/18 12:12:29;;;;;;;10.30;7.60;;;;;;;;;;5011653;28;20207;-71
2022/05/18 12:14:58;;;;;;;8.45;7.53;;;;;;;;;;5011653;28;20178;-71
2022/05/18 12:17:44;;;;;;;10.45;7.43;;;;;;;;;;5011496;28;20269;-70
2022/05/18 12:20:17;;;;;;;9.10;7.30;;;;;;;;;;5014471;28;20203;-72
2022/05/18 12:22:48;;;;;;;10.15;7.30;;;;;;;;;;5011996;28;20623;-71
2022/05/18 12:25:15;;;;;;;9.30;7.05;;;;;;;;;;5015731;28;20183;-71
2022/05/18 12:27:41;;;;;;;9.00;7.07;;;;;;;;;;5025540;28;20537;-70
2022/05/18 12:30:07;;;;;;;8.75;6.28;;;;;;;;;;5014727;28;20210;-70
2022/05/18 12:32:33;;;;;;;7.47;5.68;;;;;;;;;;5013256;28;20182;-70
2022/05/18 12:35:10;;;;;;;7.53;6.57;;;;;;;;;;5015567;28;20550;-70
2022/05/18 12:37:47;;;;;;;6.47;5.55;;;;;;;;;;5013985;28;20182;-71
2022/05/18 12:40:15;;;;;;;8.48;5.85;;;;;;;;;;5011176;28;20186;-71
2022/05/18 12:42:55;;;;;;;8.40;6.10;;;;;;;;;;5016343;28;20189;-72
2022/05/18 12:45:26;;;;;;;7.60;6.13;;;;;;;;;;5014931;28;20174;-70
2022/05/18 12:48:03;;;;;;;8.00;5.78;;;;;;;;;;5009335;28;20186;-69
2022/05/18 12:50:30;;;;;;;6.00;4.72;;;;;;;;;;5015101;28;20589;-70
2022/05/18 12:52:57;;;;;;;6.55;5.82;;;;;;;;;;5014572;28;20290;-71
2022/05/18 12:55:33;;;;;;;7.72;5.80;;;;;;;;;;5017009;28;20345;-70
2022/05/18 12:58:04;;;;;;;6.40;5.80;;;;;;;;;;5009676;28;20189;-71
2022/05/18 13:00:30;;;;;;;9.38;5.85;;;;;;;;;;5015448;28;20198;-71
2022/05/18 13:03:07;;;;;;;7.50;5.90;;;;;;;;;;5022817;28;20244;-70
2022/05/18 13:05:39;;;;;;;7.05;5.47;;;;;;;;;;5032453;28;20186;-69
2022/05/18 13:08:11;;;;;;;8.43;5.47;;;;;;;;;;5013532;28;20179;-70
2022/05/18 13:10:37;;;;;;;8.63;5.57;;;;;;;;;;5019013;28;20209;-70
2022/05/18 13:13:04;;;;;;;8.10;5.70;;;;;;;;;;5017806;28;20178;-70
2022/05/18 13:15:36;;;;;;;9.30;5.82;;;;;;;;;;5013164;28;20179;-70
2022/05/18 13:18:03;;;;;;;8.05;5.63;;;;;;;;;;5020690;28;20349;-71
2022/05/18 13:20:32;;;;;;;7.15;5.90;;;;;;;;;;5016827;28;20692;-71
2022/05/18 13:22:57;;;;;;;10.95;6.18;;;;;;;;;;5013521;28;20281;-71
2022/05/18 13:25:25;;;;;;;7.27;5.20;;;;;;;;;;5014385;28;20336;-71
2022/05/18 13:27:52;;;;;;;6.70;5.13;;;;;;;;;;5016260;28;20576;-71
2022/05/18 13:30:20;;;;;;;7.53;5.43;;;;;;;;;;5018171;28;20194;-71
2022/05/18 13:32:47;;;;;;;7.75;5.35;;;;;;;;;;5015404;28;20202;-71
2022/05/18 13:35:20;;;;;;;10.00;5.22;;;;;;;;;;5015463;28;20181;-71
2022/05/18 13:38:11;;;;;;;5.95;5.35;;;;;;;;;;5012879;28;20547;-71
2022/05/18 13:40:41;;;;;;;7.38;4.72;;;;;;;;;;4988734;28;20684;-71
2022/05/18 13:43:07;;;;;;;5.32;4.80;;;;;;;;;;5015621;28;20179;-71
2022/05/18 13:45:33;;;;;;;6.05;5.22;;;;;;;;;;5028985;28;20187;-71
2022/05/18 13:47:58;;;;;;;5.63;4.85;;;;;;;;;;5019912;28;20175;-70
2022/05/18 13:50:50;;;;;;;6.78;6.07;;;;;;;;;;5009896;28;20289;-70
2022/05/18 13:53:21;;;;;;;8.98;5.53;;;;;;;;;;5012018;28;20202;-70
2022/05/18 13:55:47;;;;;;;5.63;4.75;;;;;;;;;;5016397;28;20656;-70
2022/05/18 13:58:14;;;;;;;9.40;4.95;;;;;;;;;;5012319;28;20197;-71
2022/05/18 14:01:00;;;;;;;6.85;4.63;;;;;;;;;;5017889;28;20203;-71
2022/05/18 14:03:30;;;;;;;7.97;4.28;;;;;;;;;;5026696;28;20282;-72
2022/05/18 14:05:57;;;;;;;6.38;5.57;;;;;;;;;;5013223;28;20183;-71
2022/05/18 14:08:25;;;;;;;6.03;5.28;;;;;;;;;;5012466;28;20182;-72
2022/05/18 14:10:50;;;;;;;7.95;5.68;;;;;;;;;;5012494;28;20218;-72
2022/05/18 14:13:15;;;;;;;5.83;4.97;;;;;;;;;;5013464;28;20183;-71
2022/05/18 14:15:41;;;;;;;8.98;6.18;;;;;;;;;;5011988;28;20946;-71
2022/05/18 14:18:08;;;;;;;7.80;5.40;;;;;;;;;;5017969;28;20186;-71
2022/05/18 14:20:39;;;;;;;6.88;4.88;;;;;;;;;;5019506;28;20244;-71
2022/05/18 14:23:06;;;;;;;7.38;5.30;;;;;;;;;;5020020;28;20191;-70
2022/05/18 14:25:33;;;;;;;7.03;5.40;;;;;;;;;;5017816;28;20186;-70
2022/05/18 14:28:01;;;;;;;10.15;7.07;;;;;;;;;;5011748;28;20170;-71
2022/05/18 14:30:29;;;;;;;9.43;6.35;;;;;;;;;;5012984;28;20224;-70
2022/05/18 14:33:00;;;;;;;6.72;6.03;;;;;;;;;;5006826;28;20671;-72
2022/05/18 14:35:28;;;;;;;8.95;6.38;;;;;;;;;;5010729;28;20183;-71
2022/05/18 14:37:58;;;;;;;6.38;5.78;;;;;;;;;;5012554;28;20175;-70
2022/05/18 14:40:24;;;;;;;10.43;6.40;;;;;;;;;;5031333;28;20221;-71
2022/05/18 14:42:53;;;;;;;8.82;6.57;;;;;;;;;;5019025;28;20187;-70
2022/05/18 14:45:24;;;;;;;7.88;6.40;;;;;;;;;;5013238;28;20529;-70
2022/05/18 14:47:52;;;;;;;9.73;6.85;;;;;;;;;;5019641;28;20187;-70
2022/05/18 14:50:17;;;;;;;8.98;6.50;;;;;;;;;;5029250;28;20251;-71
2022/05/18 14:53:08;;;;;;;6.90;6.20;;;;;;;;;;5017227;28;20257;-70